createdAt,value
2019-05-25T00:00:49.402Z,1008.5
2019-05-25T00:02:03.524Z,1008.5
2019-05-25T00:03:17.731Z,1008.5
2019-05-25T00:04:31.914Z,1008.5
2019-05-25T00:05:46.092Z,1008.5
2019-05-25T00:07:00.297Z,1008.5
2019-05-25T00:10:42.851Z,1008.5
2019-05-25T00:11:57.027Z,1008.5
2019-05-25T00:13:11.233Z,1008.6
2019-05-25T00:14:25.431Z,1008.6
2019-05-25T00:15:39.634Z,1008.6
2019-05-25T00:16:53.833Z,1008.6
2019-05-25T00:18:08.090Z,1008.5
2019-05-25T00:19:22.263Z,1008.5
2019-05-25T00:21:50.700Z,1008.5
2019-05-25T00:23:07.979Z,1008.6
2019-05-25T00:24:20.869Z,1008.6
2019-05-25T00:25:33.289Z,1008.6
2019-05-25T00:26:47.369Z,1008.6
2019-05-25T00:28:01.561Z,1008.6
2019-05-25T00:29:20.769Z,1008.5
2019-05-25T00:30:29.970Z,1008.5
2019-05-25T00:31:44.181Z,1008.6
2019-05-25T00:32:58.474Z,1008.6
2019-05-25T00:34:12.558Z,1008.6
2019-05-25T00:35:26.755Z,1008.6
2019-05-25T00:36:41.033Z,1008.5
2019-05-25T00:37:55.140Z,1008.6
2019-05-25T00:39:09.441Z,1008.6
2019-05-25T00:40:23.626Z,1008.6
2019-05-25T00:41:37.836Z,1008.6
2019-05-25T00:42:52.005Z,1008.6
2019-05-25T00:44:06.173Z,1008.6
2019-05-25T00:46:34.610Z,1008.6
2019-05-25T00:47:48.703Z,1008.6
2019-05-25T00:49:02.907Z,1008.6
2019-05-25T00:50:17.097Z,1008.6
2019-05-25T00:51:31.316Z,1008.6
2019-05-25T00:52:45.497Z,1008.7
2019-05-25T00:53:59.792Z,1008.7
2019-05-25T00:55:13.880Z,1008.6
2019-05-25T00:56:28.065Z,1008.7
2019-05-25T00:57:42.349Z,1008.7
2019-05-25T00:58:56.457Z,1008.7
2019-05-25T01:00:10.679Z,1008.6
2019-05-25T01:01:24.868Z,1008.7
2019-05-25T01:02:39.055Z,1008.7
2019-05-25T01:03:53.308Z,1008.7
2019-05-25T01:05:07.623Z,1008.8
2019-05-25T01:06:21.613Z,1008.7
2019-05-25T01:07:35.809Z,1008.7
2019-05-25T01:08:50.006Z,1008.8
2019-05-25T01:10:04.232Z,1008.7
2019-05-25T01:11:18.400Z,1008.8
2019-05-25T01:12:32.661Z,1008.8
2019-05-25T01:13:46.762Z,1008.8
2019-05-25T01:15:00.955Z,1008.8
2019-05-25T01:16:15.243Z,1008.8
2019-05-25T01:17:29.335Z,1008.8
2019-05-25T01:18:43.610Z,1008.8
2019-05-25T01:19:57.803Z,1008.8
2019-05-25T01:21:11.982Z,1008.8
2019-05-25T01:22:26.088Z,1008.8
2019-05-25T01:23:40.382Z,1008.8
2019-05-25T01:24:54.689Z,1008.8
2019-05-25T01:26:08.678Z,1008.8
2019-05-25T01:27:22.966Z,1008.8
2019-05-25T01:28:37.317Z,1008.8
2019-05-25T01:29:51.338Z,1008.8
2019-05-25T01:31:05.448Z,1008.8
2019-05-25T01:32:19.657Z,1008.9
2019-05-25T01:33:33.844Z,1008.9
2019-05-25T01:34:48.039Z,1008.8
2019-05-25T01:36:02.255Z,1008.9
2019-05-25T01:37:16.447Z,1008.8
2019-05-25T01:38:30.714Z,1008.9
2019-05-25T01:39:44.830Z,1008.9
2019-05-25T01:40:59.129Z,1008.9
2019-05-25T01:42:13.241Z,1008.9
2019-05-25T01:43:28.842Z,1009
2019-05-25T01:44:41.624Z,1008.9
2019-05-25T01:45:55.944Z,1008.9
2019-05-25T01:47:10.021Z,1008.9
2019-05-25T01:48:24.216Z,1009
2019-05-25T01:49:38.423Z,1008.9
2019-05-25T01:50:52.617Z,1008.9
2019-05-25T01:52:06.895Z,1008.9
2019-05-25T01:53:21.033Z,1008.9
2019-05-25T01:54:35.210Z,1008.9
2019-05-25T01:55:49.416Z,1008.9
2019-05-25T01:57:03.689Z,1008.9
2019-05-25T01:58:17.800Z,1008.9
2019-05-25T01:59:32.010Z,1008.9
2019-05-25T02:00:46.197Z,1008.9
2019-05-25T02:02:00.524Z,1008.9
2019-05-25T02:03:14.586Z,1008.8
2019-05-25T02:04:28.789Z,1008.9
2019-05-25T02:05:42.986Z,1008.9
2019-05-25T02:06:57.186Z,1008.9
2019-05-25T02:08:11.386Z,1008.9
2019-05-25T02:09:25.705Z,1008.9
2019-05-25T02:10:39.774Z,1008.9
2019-05-25T02:11:53.962Z,1008.9
2019-05-25T02:13:08.172Z,1008.9
2019-05-25T02:14:22.415Z,1009
2019-05-25T02:15:36.557Z,1009
2019-05-25T02:16:50.757Z,1008.9
2019-05-25T02:18:04.957Z,1008.9
2019-05-25T02:19:19.240Z,1008.9
2019-05-25T02:20:33.412Z,1009
2019-05-25T02:21:47.568Z,1009
2019-05-25T02:23:01.825Z,1008.9
2019-05-25T02:24:16.022Z,1009
2019-05-25T02:25:30.456Z,1008.9
2019-05-25T02:26:44.471Z,1009
2019-05-25T02:27:58.532Z,1008.9
2019-05-25T02:29:12.752Z,1008.9
2019-05-25T02:30:26.950Z,1009
2019-05-25T02:31:41.235Z,1009
2019-05-25T02:32:55.342Z,1008.9
2019-05-25T02:34:09.518Z,1009
2019-05-25T02:35:23.781Z,1009
2019-05-25T02:36:37.886Z,1009
2019-05-25T02:37:52.107Z,1009.1
2019-05-25T02:39:06.510Z,1009
2019-05-25T02:40:20.465Z,1009
2019-05-25T02:41:34.759Z,1009.1
2019-05-25T02:42:48.863Z,1009.1
2019-05-25T02:44:03.180Z,1009.1
2019-05-25T02:45:17.245Z,1009.1
2019-05-25T02:46:37.511Z,1009.1
2019-05-25T02:47:45.632Z,1009.1
2019-05-25T02:48:59.819Z,1009.1
2019-05-25T02:50:14.024Z,1009.1
2019-05-25T02:51:28.282Z,1009.1
2019-05-25T02:52:42.543Z,1009.1
2019-05-25T02:53:56.587Z,1009.2
2019-05-25T02:55:10.773Z,1009.2
2019-05-25T02:56:24.964Z,1009.2
2019-05-25T02:57:39.254Z,1009.2
2019-05-25T02:58:53.373Z,1009.2
2019-05-25T03:00:07.639Z,1009.2
2019-05-25T03:01:21.736Z,1009.2
2019-05-25T03:02:36.081Z,1009.2
2019-05-25T03:03:50.123Z,1009.2
2019-05-25T03:05:04.327Z,1009.2
2019-05-25T03:06:18.673Z,1009.3
2019-05-25T03:07:35.471Z,1009.3
2019-05-25T03:08:50.749Z,1009.3
2019-05-25T03:10:01.108Z,1009.3
2019-05-25T03:11:15.284Z,1009.3
2019-05-25T03:12:29.569Z,1009.3
2019-05-25T03:13:43.662Z,1009.3
2019-05-25T03:14:57.949Z,1009.3
2019-05-25T03:17:26.236Z,1009.3
2019-05-25T03:18:40.525Z,1009.3
2019-05-25T03:19:54.607Z,1009.3
2019-05-25T03:21:08.787Z,1009.3
2019-05-25T03:22:23.197Z,1009.3
2019-05-25T03:23:37.188Z,1009.3
2019-05-25T03:24:51.537Z,1009.4
2019-05-25T03:27:20.826Z,1009.3
2019-05-25T03:28:33.882Z,1009.4
2019-05-25T03:29:48.126Z,1009.3
2019-05-25T03:32:16.446Z,1009.4
2019-05-25T03:33:30.651Z,1009.4
2019-05-25T03:34:44.846Z,1009.4
2019-05-25T03:35:59.026Z,1009.4
2019-05-25T03:37:13.308Z,1009.3
2019-05-25T03:38:27.441Z,1009.4
2019-05-25T03:39:41.580Z,1009.4
2019-05-25T03:40:55.707Z,1009.3
2019-05-25T03:42:09.995Z,1009.3
2019-05-25T03:43:24.085Z,1009.4
2019-05-25T03:44:38.347Z,1009.4
2019-05-25T03:45:52.442Z,1009.4
2019-05-25T03:47:06.681Z,1009.4
2019-05-25T03:48:20.855Z,1009.4
2019-05-25T03:49:35.003Z,1009.3
2019-05-25T03:50:49.275Z,1009.3
2019-05-25T03:52:03.426Z,1009.3
2019-05-25T03:53:17.597Z,1009.4
2019-05-25T03:54:31.771Z,1009.4
2019-05-25T03:55:46.032Z,1009.4
2019-05-25T03:57:00.137Z,1009.3
2019-05-25T03:58:14.318Z,1009.3
2019-05-25T03:59:28.501Z,1009.3
2019-05-25T04:00:42.697Z,1009.3
2019-05-25T04:01:56.870Z,1009.3
2019-05-25T04:03:11.079Z,1009.3
2019-05-25T04:04:25.341Z,1009.4
2019-05-25T04:05:39.442Z,1009.3
2019-05-25T04:06:53.636Z,1009.4
2019-05-25T04:08:07.827Z,1009.4
2019-05-25T04:09:22.126Z,1009.4
2019-05-25T04:10:36.289Z,1009.4
2019-05-25T04:13:08.319Z,1009.3
2019-05-25T04:14:18.772Z,1009.4
2019-05-25T04:15:32.930Z,1009.4
2019-05-25T04:16:47.100Z,1009.4
2019-05-25T04:18:01.284Z,1009.3
2019-05-25T04:19:15.487Z,1009.4
2019-05-25T04:20:29.733Z,1009.4
2019-05-25T04:22:58.035Z,1009.3
2019-05-25T04:24:12.250Z,1009.3
2019-05-25T04:25:26.323Z,1009.3
2019-05-25T04:26:40.636Z,1009.3
2019-05-25T04:27:54.655Z,1009.3
2019-05-25T04:30:23.021Z,1009.3
2019-05-25T04:31:37.203Z,1009.4
2019-05-25T04:32:51.330Z,1009.4
2019-05-25T04:34:05.495Z,1009.4
2019-05-25T04:36:33.853Z,1009.4
2019-05-25T04:37:48.024Z,1009.4
2019-05-25T04:39:02.184Z,1009.4
2019-05-25T04:40:16.352Z,1009.4
2019-05-25T04:41:30.593Z,1009.4
2019-05-25T04:42:44.694Z,1009.5
2019-05-25T04:43:58.987Z,1009.5
2019-05-25T04:45:13.046Z,1009.5
2019-05-25T04:46:27.209Z,1009.5
2019-05-25T04:47:41.391Z,1009.5
2019-05-25T04:48:55.617Z,1009.5
2019-05-25T04:50:09.777Z,1009.5
2019-05-25T04:51:23.939Z,1009.5
2019-05-25T04:52:38.018Z,1009.5
2019-05-25T04:53:52.266Z,1009.5
2019-05-25T04:55:06.426Z,1009.6
2019-05-25T04:56:20.501Z,1009.5
2019-05-25T04:57:34.665Z,1009.6
2019-05-25T04:58:48.827Z,1009.5
2019-05-25T05:00:03.086Z,1009.6
2019-05-25T05:01:17.249Z,1009.5
2019-05-25T05:03:45.574Z,1009.6
2019-05-25T05:04:59.636Z,1009.5
2019-05-25T05:06:13.802Z,1009.5
2019-05-25T05:07:27.973Z,1009.5
2019-05-25T05:08:42.160Z,1009.6
2019-05-25T05:09:56.275Z,1009.5
2019-05-25T05:11:10.542Z,1009.5
2019-05-25T05:12:24.596Z,1009.5
2019-05-25T05:13:38.857Z,1009.5
2019-05-25T05:16:07.123Z,1009.6
2019-05-25T05:17:21.239Z,1009.6
2019-05-25T05:18:35.373Z,1009.5
2019-05-25T05:19:49.510Z,1009.6
2019-05-25T05:21:03.681Z,1009.6
2019-05-25T05:22:17.829Z,1009.6
2019-05-25T05:23:32.066Z,1009.5
2019-05-25T05:26:00.389Z,1009.6
2019-05-25T05:27:14.438Z,1009.5
2019-05-25T05:28:28.603Z,1009.6
2019-05-25T05:29:42.759Z,1009.6
2019-05-25T05:30:56.907Z,1009.6
2019-05-25T05:32:11.169Z,1009.6
2019-05-25T05:33:25.292Z,1009.7
2019-05-25T05:34:39.361Z,1009.6
2019-05-25T05:35:53.588Z,1009.7
2019-05-25T05:37:07.655Z,1009.7
2019-05-25T05:38:21.903Z,1009.7
2019-05-25T05:39:36.120Z,1009.7
2019-05-25T05:40:50.150Z,1009.7
2019-05-25T05:42:04.399Z,1009.7
2019-05-25T05:43:18.421Z,1009.7
2019-05-25T05:45:46.719Z,1009.6
2019-05-25T05:47:00.893Z,1009.7
2019-05-25T05:48:15.178Z,1009.7
2019-05-25T05:50:43.335Z,1009.7
2019-05-25T05:53:11.652Z,1009.7
2019-05-25T05:54:25.780Z,1009.7
2019-05-25T05:56:54.089Z,1009.7
2019-05-25T05:58:08.317Z,1009.7
2019-05-25T05:59:22.399Z,1009.7
2019-05-25T06:00:36.600Z,1009.7
2019-05-25T06:01:50.704Z,1009.7
2019-05-25T06:03:06.689Z,1009.7
2019-05-25T06:04:19.032Z,1009.7
2019-05-25T06:05:33.245Z,1009.7
2019-05-25T06:06:47.311Z,1009.7
2019-05-25T06:08:01.462Z,1009.7
2019-05-25T06:09:15.607Z,1009.7
2019-05-25T06:10:29.766Z,1009.8
2019-05-25T06:11:43.998Z,1009.7
2019-05-25T06:12:58.050Z,1009.7
2019-05-25T06:14:12.206Z,1009.8
2019-05-25T06:15:26.342Z,1009.8
2019-05-25T06:16:40.499Z,1009.8
2019-05-25T06:17:54.734Z,1009.9
2019-05-25T06:19:08.788Z,1009.9
2019-05-25T06:20:22.989Z,1009.9
2019-05-25T06:21:37.176Z,1009.9
2019-05-25T06:22:51.308Z,1009.8
2019-05-25T06:24:05.426Z,1009.9
2019-05-25T06:25:19.573Z,1009.9
2019-05-25T06:26:33.632Z,1009.9
2019-05-25T06:27:47.849Z,1009.9
2019-05-25T06:29:01.913Z,1009.9
2019-05-25T06:30:16.052Z,1009.9
2019-05-25T06:31:30.188Z,1009.9
2019-05-25T06:32:44.491Z,1010
2019-05-25T06:35:12.728Z,1009.9
2019-05-25T06:36:26.850Z,1009.9
2019-05-25T06:37:41.006Z,1009.9
2019-05-25T06:40:09.297Z,1009.9
2019-05-25T06:41:23.312Z,1009.9
2019-05-25T06:42:37.614Z,1009.9
2019-05-25T06:45:05.786Z,1009.9
2019-05-25T06:47:33.966Z,1009.9
2019-05-25T06:50:02.289Z,1009.9
2019-05-25T06:51:16.408Z,1009.9
2019-05-25T06:52:30.453Z,1009.8
2019-05-25T06:53:44.669Z,1009.9
2019-05-25T06:55:00.878Z,1009.9
2019-05-25T06:56:12.843Z,1009.9
2019-05-25T06:57:26.969Z,1009.9
2019-05-25T06:58:41.104Z,1009.9
2019-05-25T06:59:55.239Z,1009.9
2019-05-25T07:01:09.374Z,1009.9
2019-05-25T07:02:23.495Z,1009.9
2019-05-25T07:03:37.609Z,1009.9
2019-05-25T07:04:51.742Z,1010
2019-05-25T07:06:05.981Z,1009.9
2019-05-25T07:07:19.997Z,1009.9
2019-05-25T07:08:34.119Z,1009.9
2019-05-25T07:09:48.260Z,1009.9
2019-05-25T07:11:02.474Z,1009.9
2019-05-25T07:12:16.499Z,1010
2019-05-25T07:13:30.627Z,1009.9
2019-05-25T07:14:44.801Z,1009.9
2019-05-25T07:15:58.874Z,1009.9
2019-05-25T07:17:13.028Z,1009.9
2019-05-25T07:18:27.262Z,1010
2019-05-25T07:19:41.259Z,1010
2019-05-25T07:20:55.395Z,1009.9
2019-05-25T07:22:09.518Z,1010
2019-05-25T07:24:37.767Z,1010
2019-05-25T07:25:51.966Z,1010
2019-05-25T07:28:20.152Z,1010.1
2019-05-25T07:29:34.272Z,1010.1
2019-05-25T07:30:51.319Z,1010.1
2019-05-25T07:32:02.529Z,1010.1
2019-05-25T07:33:16.655Z,1010.1
2019-05-25T07:34:30.778Z,1010.1
2019-05-25T07:35:45.202Z,1010.2
2019-05-25T07:36:59.017Z,1010.1
2019-05-25T07:38:13.139Z,1010.1
2019-05-25T07:39:27.235Z,1010
2019-05-25T07:41:55.463Z,1010
2019-05-25T07:43:09.686Z,1010.1
2019-05-25T07:44:23.753Z,1010.1
2019-05-25T07:45:37.822Z,1010
2019-05-25T07:46:51.916Z,1010
2019-05-25T07:48:06.145Z,1010.1
2019-05-25T07:49:20.170Z,1010.1
2019-05-25T07:50:34.376Z,1010.1
2019-05-25T07:51:48.479Z,1010.1
2019-05-25T07:53:07.481Z,1010.1
2019-05-25T07:54:16.637Z,1010.3
2019-05-25T07:55:30.764Z,1010.3
2019-05-25T07:56:44.910Z,1010.3
2019-05-25T07:57:59.088Z,1010.2
2019-05-25T07:59:13.036Z,1010
2019-05-25T08:00:27.194Z,1010.2
2019-05-25T08:01:41.287Z,1010.4
2019-05-25T08:02:55.268Z,1010.4
2019-05-25T08:04:09.334Z,1010.2
2019-05-25T08:05:23.402Z,1010.1
2019-05-25T08:06:37.472Z,1010.1
2019-05-25T08:07:51.549Z,1010
2019-05-25T08:09:05.704Z,1010.4
2019-05-25T08:10:19.815Z,1010.1
2019-05-25T08:11:33.847Z,1010.1
2019-05-25T08:12:47.921Z,1010.2
2019-05-25T08:14:02.023Z,1010.1
2019-05-25T08:15:16.013Z,1010.1
2019-05-25T08:16:30.052Z,1010.2
2019-05-25T08:17:44.209Z,1010.4
2019-05-25T08:18:58.267Z,1010.3
2019-05-25T08:20:12.251Z,1010.2
2019-05-25T08:21:26.311Z,1010.1
2019-05-25T08:22:40.424Z,1010.3
2019-05-25T08:23:54.596Z,1010.1
2019-05-25T08:25:08.631Z,1010.3
2019-05-25T08:26:22.600Z,1010.3
2019-05-25T08:27:36.673Z,1010.1
2019-05-25T08:28:50.736Z,1010.1
2019-05-25T08:30:04.802Z,1010.1
2019-05-25T08:31:18.870Z,1010.3
2019-05-25T08:32:32.940Z,1010.1
2019-05-25T08:33:47.132Z,1010.1
2019-05-25T08:35:01.094Z,1010.1
2019-05-25T08:36:15.204Z,1010.1
2019-05-25T08:37:29.271Z,1010.1
2019-05-25T08:38:43.364Z,1010.1
2019-05-25T08:39:57.463Z,1010.2
2019-05-25T08:41:11.592Z,1010.2
2019-05-25T08:42:25.642Z,1010.2
2019-05-25T08:43:39.720Z,1010.3
2019-05-25T08:44:53.817Z,1010.3
2019-05-25T08:46:07.920Z,1010.3
2019-05-25T08:47:22.131Z,1010.3
2019-05-25T08:48:36.200Z,1010.2
2019-05-25T08:49:50.228Z,1010.2
2019-05-25T08:51:04.308Z,1010.2
2019-05-25T08:52:20.634Z,1010.3
2019-05-25T08:53:32.596Z,1010.2
2019-05-25T08:54:46.578Z,1010.2
2019-05-25T08:56:00.680Z,1010.2
2019-05-25T08:57:14.785Z,1010.5
2019-05-25T08:58:28.859Z,1010.3
2019-05-25T09:00:57.110Z,1010.2
2019-05-25T09:04:39.389Z,1010.3
2019-05-25T09:05:53.394Z,1010.3
2019-05-25T09:07:07.496Z,1010.2
2019-05-25T09:08:21.578Z,1010.2
2019-05-25T09:09:35.757Z,1010.1
2019-05-25T09:10:49.762Z,1010.1
2019-05-25T09:12:03.923Z,1010
2019-05-25T09:13:18.029Z,1010.5
2019-05-25T09:14:32.015Z,1010.2
2019-05-25T09:15:46.080Z,1010.3
2019-05-25T09:17:00.157Z,1010.4
2019-05-25T09:19:28.303Z,1010.4
2019-05-25T09:20:42.359Z,1010.5
2019-05-25T09:21:56.405Z,1010.7
2019-05-25T09:23:10.431Z,1010.7
2019-05-25T09:24:24.494Z,1010.5
2019-05-25T09:25:38.593Z,1010.6
2019-05-25T09:26:52.701Z,1010.2
2019-05-25T09:28:06.634Z,1010.2
2019-05-25T09:29:20.632Z,1010.2
2019-05-25T09:30:34.809Z,1010.2
2019-05-25T09:31:48.925Z,1010.1
2019-05-25T09:33:02.852Z,1010.2
2019-05-25T09:34:16.938Z,1010.2
2019-05-25T09:35:31.023Z,1010.2
2019-05-25T09:36:45.191Z,1010.6
2019-05-25T09:37:59.204Z,1010.7
2019-05-25T09:39:13.251Z,1010.4
2019-05-25T09:40:27.312Z,1010.3
2019-05-25T09:41:41.412Z,1010.2
2019-05-25T09:42:55.449Z,1010.2
2019-05-25T09:44:09.532Z,1010.3
2019-05-25T09:45:23.606Z,1010.1
2019-05-25T09:46:37.796Z,1010.2
2019-05-25T09:47:51.784Z,1010.2
2019-05-25T09:50:20.217Z,1010.3
2019-05-25T09:51:34.129Z,1010.3
2019-05-25T09:52:48.143Z,1010.4
2019-05-25T09:55:16.342Z,1010.2
2019-05-25T09:56:30.314Z,1010.2
2019-05-25T09:57:44.450Z,1010.2
2019-05-25T09:58:58.451Z,1010.2
2019-05-25T10:00:12.615Z,1010.4
2019-05-25T10:01:26.773Z,1010.7
2019-05-25T10:02:40.711Z,1010.8
2019-05-25T10:03:54.728Z,1010.6
2019-05-25T10:05:08.870Z,1010.3
2019-05-25T10:07:36.918Z,1010.4
2019-05-25T10:08:51.279Z,1010.7
2019-05-25T10:10:05.028Z,1010.4
2019-05-25T10:11:19.192Z,1010.4
2019-05-25T10:12:33.289Z,1010.5
2019-05-25T10:13:47.241Z,1010.7
2019-05-25T10:15:01.297Z,1010.7
2019-05-25T10:16:15.358Z,1010.4
2019-05-25T10:17:29.420Z,1010.8
2019-05-25T10:18:43.502Z,1010.5
2019-05-25T10:19:57.531Z,1010.4
2019-05-25T10:21:11.596Z,1010.3
2019-05-25T10:22:25.655Z,1010.4
2019-05-25T10:23:39.821Z,1010.4
2019-05-25T10:24:53.817Z,1010.4
2019-05-25T10:26:07.969Z,1010.4
2019-05-25T10:27:22.019Z,1010.9
2019-05-25T10:28:36.144Z,1010.6
2019-05-25T10:29:50.059Z,1011
2019-05-25T10:31:04.106Z,1010.5
2019-05-25T10:32:18.181Z,1010.6
2019-05-25T10:33:32.393Z,1010.5
2019-05-25T10:34:46.330Z,1010.4
2019-05-25T10:36:00.877Z,1010.4
2019-05-25T10:37:14.361Z,1010.3
2019-05-25T10:38:28.410Z,1010.9
2019-05-25T10:39:42.574Z,1010.4
2019-05-25T10:40:56.495Z,1010.4
2019-05-25T10:42:10.597Z,1010.6
2019-05-25T10:43:24.617Z,1010.9
2019-05-25T10:44:38.695Z,1010.4
2019-05-25T10:45:52.968Z,1010.4
2019-05-25T10:48:20.970Z,1010.4
2019-05-25T10:49:34.929Z,1010.4
2019-05-25T10:50:48.995Z,1010.3
2019-05-25T10:52:03.128Z,1010.4
2019-05-25T10:53:17.184Z,1010.7
2019-05-25T10:54:31.249Z,1010.3
2019-05-25T10:55:45.302Z,1010.3
2019-05-25T10:56:59.397Z,1010.3
2019-05-25T10:58:13.486Z,1010.7
2019-05-25T10:59:27.564Z,1010.6
2019-05-25T11:00:41.603Z,1010.7
2019-05-25T11:01:55.666Z,1010.4
2019-05-25T11:03:09.814Z,1010.5
2019-05-25T11:04:23.783Z,1010.5
2019-05-25T11:05:37.919Z,1010.3
2019-05-25T11:06:51.896Z,1010.7
2019-05-25T11:09:20.105Z,1010.4
2019-05-25T11:10:34.155Z,1010.4
2019-05-25T11:11:48.168Z,1010.3
2019-05-25T11:13:02.299Z,1010.3
2019-05-25T11:14:16.294Z,1010.3
2019-05-25T11:15:30.385Z,1010.3
2019-05-25T11:16:44.479Z,1010.2
2019-05-25T11:17:58.569Z,1010.2
2019-05-25T11:19:12.665Z,1010.2
2019-05-25T11:20:26.985Z,1010.3
2019-05-25T11:21:40.932Z,1010.3
2019-05-25T11:22:54.959Z,1010.4
2019-05-25T11:24:09.074Z,1010.4
2019-05-25T11:25:23.148Z,1010.4
2019-05-25T11:26:37.266Z,1010.3
2019-05-25T11:27:51.340Z,1010.4
2019-05-25T11:29:05.439Z,1010.3
2019-05-25T11:30:19.528Z,1010.4
2019-05-25T11:31:33.699Z,1010.3
2019-05-25T11:32:47.709Z,1010.3
2019-05-25T11:34:01.813Z,1010.4
2019-05-25T11:35:16.040Z,1010.3
2019-05-25T11:36:30.110Z,1010.3
2019-05-25T11:37:44.204Z,1010.3
2019-05-25T11:38:58.281Z,1010.3
2019-05-25T11:40:12.294Z,1010.4
2019-05-25T11:41:26.475Z,1010.3
2019-05-25T11:42:40.492Z,1010.3
2019-05-25T11:43:54.565Z,1010.4
2019-05-25T11:45:08.655Z,1010.3
2019-05-25T11:46:22.750Z,1010.2
2019-05-25T11:47:36.832Z,1010.3
2019-05-25T11:48:50.985Z,1010.3
2019-05-25T11:50:05.072Z,1010.3
2019-05-25T11:51:19.144Z,1010.3
2019-05-25T11:52:33.153Z,1010.4
2019-05-25T11:53:47.237Z,1010.4
2019-05-25T11:55:01.766Z,1010.3
2019-05-25T11:56:15.390Z,1010.2
2019-05-25T11:57:29.470Z,1010.2
2019-05-25T11:58:43.641Z,1010.3
2019-05-25T11:59:57.609Z,1010.4
2019-05-25T12:01:11.689Z,1010.2
2019-05-25T12:02:25.940Z,1010.2
2019-05-25T12:03:39.964Z,1010.6
2019-05-25T12:04:53.918Z,1010.4
2019-05-25T12:06:07.994Z,1010.2
2019-05-25T12:07:22.127Z,1010.2
2019-05-25T12:08:36.205Z,1010.7
2019-05-25T12:09:50.213Z,1010.5
2019-05-25T12:11:04.381Z,1010.1
2019-05-25T12:12:18.335Z,1010.3
2019-05-25T12:13:32.422Z,1010.2
2019-05-25T12:14:46.476Z,1010.2
2019-05-25T12:16:00.541Z,1010.4
2019-05-25T12:18:28.654Z,1010.1
2019-05-25T12:19:42.729Z,1010.1
2019-05-25T12:20:56.801Z,1010
2019-05-25T12:22:10.862Z,1010.1
2019-05-25T12:23:24.934Z,1010.1
2019-05-25T12:24:39.007Z,1010.1
2019-05-25T12:25:53.185Z,1010.1
2019-05-25T12:27:07.308Z,1010
2019-05-25T12:28:21.258Z,1010.1
2019-05-25T12:29:35.404Z,1010.1
2019-05-25T12:30:50.875Z,1010.1
2019-05-25T12:32:05.511Z,1010
2019-05-25T12:33:19.229Z,1010
2019-05-25T12:34:32.562Z,1010.4
2019-05-25T12:35:46.170Z,1010.4
2019-05-25T12:36:59.761Z,1010.4
2019-05-25T12:38:13.892Z,1010.3
2019-05-25T12:39:27.858Z,1010.4
2019-05-25T12:40:41.980Z,1010.5
2019-05-25T12:41:56.037Z,1009.9
2019-05-25T12:43:09.996Z,1009.9
2019-05-25T12:45:38.110Z,1010.4
2019-05-25T12:46:52.183Z,1010
2019-05-25T12:48:06.255Z,1010.3
2019-05-25T12:50:35.877Z,1010.3
2019-05-25T12:53:02.562Z,1010.2
2019-05-25T12:54:16.436Z,1010.5
2019-05-25T12:55:30.587Z,1010.6
2019-05-25T12:56:50.455Z,1009.9
2019-05-25T12:57:58.594Z,1010.1
2019-05-25T12:59:12.680Z,1010.4
2019-05-25T13:00:26.790Z,1010.2
2019-05-25T13:01:40.752Z,1010.1
2019-05-25T13:02:54.869Z,1010.5
2019-05-25T13:04:08.838Z,1010
2019-05-25T13:05:23.090Z,1010.1
2019-05-25T13:06:36.939Z,1009.9
2019-05-25T13:07:51.093Z,1009.9
2019-05-25T13:09:05.074Z,1010.2
2019-05-25T13:10:20.625Z,1010.1
2019-05-25T13:11:33.160Z,1010
2019-05-25T13:12:47.233Z,1010.5
2019-05-25T13:14:01.297Z,1010.3
2019-05-25T13:15:15.354Z,1010
2019-05-25T13:16:29.403Z,1010.5
2019-05-25T13:17:43.618Z,1010.5
2019-05-25T13:18:57.509Z,1010.6
2019-05-25T13:20:11.560Z,1010.1
2019-05-25T13:21:25.655Z,1010
2019-05-25T13:22:39.659Z,1010.5
2019-05-25T13:25:10.507Z,1010.3
2019-05-25T13:26:21.791Z,1010.5
2019-05-25T13:27:37.873Z,1010.5
2019-05-25T13:28:49.870Z,1010.3
2019-05-25T13:30:03.914Z,1010
2019-05-25T13:31:18.074Z,1010
2019-05-25T13:32:32.116Z,1009.9
2019-05-25T13:33:46.168Z,1009.9
2019-05-25T13:35:00.149Z,1009.8
2019-05-25T13:36:14.193Z,1010
2019-05-25T13:37:28.355Z,1010
2019-05-25T13:38:42.327Z,1009.8
2019-05-25T13:39:56.477Z,1009.8
2019-05-25T13:41:10.470Z,1009.9
2019-05-25T13:42:24.546Z,1009.9
2019-05-25T13:43:38.625Z,1009.8
2019-05-25T13:44:52.724Z,1009.8
2019-05-25T13:46:06.936Z,1009.8
2019-05-25T13:47:20.920Z,1009.8
2019-05-25T13:48:34.986Z,1009.9
2019-05-25T13:49:49.091Z,1009.8
2019-05-25T13:51:03.201Z,1009.7
2019-05-25T13:52:17.280Z,1009.8
2019-05-25T13:53:31.413Z,1009.8
2019-05-25T13:54:45.503Z,1010.1
2019-05-25T13:55:59.588Z,1009.8
2019-05-25T13:57:13.686Z,1009.8
2019-05-25T13:58:27.863Z,1009.7
2019-05-25T13:59:41.881Z,1009.7
2019-05-25T14:02:10.161Z,1009.7
2019-05-25T14:03:24.282Z,1010.2
2019-05-25T14:04:38.304Z,1009.7
2019-05-25T14:05:52.372Z,1010
2019-05-25T14:07:06.515Z,1010
2019-05-25T14:08:20.561Z,1010
2019-05-25T14:09:35.762Z,1009.9
2019-05-25T14:10:48.736Z,1009.6
2019-05-25T14:12:02.815Z,1010
2019-05-25T14:13:16.891Z,1010
2019-05-25T14:14:30.971Z,1010
2019-05-25T14:15:45.067Z,1009.6
2019-05-25T14:16:59.179Z,1009.6
2019-05-25T14:18:13.218Z,1009.7
2019-05-25T14:19:27.368Z,1009.6
2019-05-25T14:20:41.815Z,1009.7
2019-05-25T14:21:55.473Z,1009.7
2019-05-25T14:23:09.523Z,1009.8
2019-05-25T14:24:23.619Z,1010.1
2019-05-25T14:25:37.691Z,1009.9
2019-05-25T14:26:51.766Z,1009.5
2019-05-25T14:28:05.861Z,1009.7
2019-05-25T14:29:19.917Z,1010
2019-05-25T14:30:34.084Z,1010
2019-05-25T14:31:48.061Z,1010
2019-05-25T14:33:02.232Z,1010.1
2019-05-25T14:34:16.304Z,1010
2019-05-25T14:36:44.295Z,1010
2019-05-25T14:39:12.476Z,1009.6
2019-05-25T14:40:26.523Z,1009.5
2019-05-25T14:41:40.497Z,1009.7
2019-05-25T14:42:54.671Z,1009.9
2019-05-25T14:44:08.607Z,1009.7
2019-05-25T14:45:22.745Z,1009.6
2019-05-25T14:46:36.806Z,1009.7
2019-05-25T14:47:50.811Z,1009.6
2019-05-25T14:49:04.916Z,1009.8
2019-05-25T14:50:20.602Z,1009.8
2019-05-25T14:52:47.021Z,1009.7
2019-05-25T14:54:02.799Z,1009.7
2019-05-25T14:56:29.313Z,1009.6
2019-05-25T14:57:43.297Z,1009.7
2019-05-25T14:59:00.571Z,1009.7
2019-05-25T15:00:14.697Z,1009.7
2019-05-25T15:01:25.501Z,1009.4
2019-05-25T15:02:39.557Z,1009.3
2019-05-25T15:03:53.658Z,1009.3
2019-05-25T15:05:07.780Z,1009.4
2019-05-25T15:06:21.770Z,1009.5
2019-05-25T15:07:35.838Z,1009.4
2019-05-25T15:08:52.929Z,1009.5
2019-05-25T15:10:04.005Z,1009.5
2019-05-25T15:11:18.088Z,1009.7
2019-05-25T15:12:32.188Z,1009.7
2019-05-25T15:13:46.240Z,1009.7
2019-05-25T15:15:00.822Z,1009.7
2019-05-25T15:16:14.389Z,1009.3
2019-05-25T15:17:28.466Z,1009.3
2019-05-25T15:18:42.554Z,1009.6
2019-05-25T15:19:56.715Z,1009.5
2019-05-25T15:21:10.677Z,1009.5
2019-05-25T15:22:24.747Z,1009.5
2019-05-25T15:23:41.649Z,1009.3
2019-05-25T15:26:06.963Z,1009.3
2019-05-25T15:28:35.105Z,1009.3
2019-05-25T15:29:49.193Z,1009.3
2019-05-25T15:31:03.305Z,1009.3
2019-05-25T15:32:17.365Z,1009.3
2019-05-25T15:33:35.946Z,1009.2
2019-05-25T15:34:45.555Z,1009.3
2019-05-25T15:35:59.645Z,1009.3
2019-05-25T15:37:13.754Z,1009.4
2019-05-25T15:38:27.870Z,1009.3
2019-05-25T15:39:41.980Z,1009.3
2019-05-25T15:40:56.050Z,1009
2019-05-25T15:42:10.162Z,1009.1
2019-05-25T15:43:24.268Z,1009.1
2019-05-25T15:44:38.360Z,1009.1
2019-05-25T15:45:52.473Z,1009.1
2019-05-25T15:47:06.684Z,1009.1
2019-05-25T15:48:20.737Z,1009.2
2019-05-25T15:50:48.916Z,1009.2
2019-05-25T15:52:03.228Z,1009.2
2019-05-25T15:53:17.158Z,1009.2
2019-05-25T15:54:31.310Z,1009.3
2019-05-25T15:55:45.457Z,1009.3
2019-05-25T15:56:59.521Z,1009
2019-05-25T15:58:13.611Z,1009.1
2019-05-25T15:59:27.746Z,1009.3
2019-05-25T16:00:41.838Z,1009.2
2019-05-25T16:01:56.115Z,1009.2
2019-05-25T16:03:10.149Z,1009.1
2019-05-25T16:04:24.167Z,1008.9
2019-05-25T16:05:38.287Z,1009.1
2019-05-25T16:06:52.405Z,1009.1
2019-05-25T16:08:06.462Z,1008.9
2019-05-25T16:09:20.758Z,1008.9
2019-05-25T16:10:34.656Z,1008.9
2019-05-25T16:13:05.665Z,1009
2019-05-25T16:14:17.018Z,1009
2019-05-25T16:15:31.051Z,1009
2019-05-25T16:16:45.142Z,1008.9
2019-05-25T16:17:59.303Z,1008.9
2019-05-25T16:19:13.320Z,1009
2019-05-25T16:20:27.413Z,1009
2019-05-25T16:21:47.605Z,1008.9
2019-05-25T16:22:55.639Z,1009.1
2019-05-25T16:25:23.804Z,1009
2019-05-25T16:26:37.925Z,1009
2019-05-25T16:27:52.012Z,1008.8
2019-05-25T16:29:06.188Z,1008.9
2019-05-25T16:30:20.268Z,1008.9
2019-05-25T16:31:34.336Z,1008.9